Time;durP1;ratioP1;P1;durP2;ratioP2;P2;SDS_P1;SDS_P2;PMS_P1;PMS_P2;Temp;Humidity;BMP_temperature;BMP_pressure;BME280_temperature;BME280_humidity;BME280_pressure;Samples;Min_cycle;Max_cycle;Signal;HPM_P1;HPM_P2
2023/06/23 00:00:51;;;;;;;;;;;17.90;99.90;;;;;;8277928;28;19967;-75
2023/06/23 00:04:52;;;;;;;;;;;17.90;99.90;;;;;;8277684;28;20015;-75
2023/06/23 00:08:52;;;;;;;;;;;18.20;99.90;;;;;;8278423;28;19910;-76
2023/06/23 00:12:53;;;;;;;;;;;17.50;99.90;;;;;;8277227;28;20474;-77
2023/06/23 00:16:53;;;;;;;;;;;17.50;99.90;;;;;;8277421;28;19919;-76
2023/06/23 00:20:54;;;;;;;;;;;17.40;99.90;;;;;;8277813;28;19910;-77
2023/06/23 00:24:55;;;;;;;;;;;17.80;99.90;;;;;;8278434;28;19917;-76
2023/06/23 00:28:55;;;;;;;;;;;17.60;99.90;;;;;;8278973;28;19953;-75
2023/06/23 00:32:55;;;;;;;;;;;18.00;99.90;;;;;;8276544;28;20018;-76
2023/06/23 00:36:56;;;;;;;;;;;17.10;99.90;;;;;;8284221;28;19914;-76
2023/06/23 00:40:56;;;;;;;;;;;17.10;99.90;;;;;;8283666;28;19909;-76
2023/06/23 00:44:57;;;;;;;;;;;17.00;99.90;;;;;;8283554;28;19909;-76
2023/06/23 00:48:58;;;;;;;;;;;17.20;99.90;;;;;;8284299;28;19913;-77
2023/06/23 00:52:59;;;;;;;;;;;17.00;99.90;;;;;;8283652;28;19925;-76
2023/06/23 00:57:00;;;;;;;;;;;17.10;99.90;;;;;;8284571;28;19917;-75
2023/06/23 01:01:00;;;;;;;;;;;17.10;99.90;;;;;;8286207;28;19925;-77
2023/06/23 01:05:01;;;;;;;;;;;16.90;99.90;;;;;;8285690;28;19920;-76
2023/06/23 01:09:11;;;;;;;;;;;17.40;99.90;;;;;;8284252;28;20566;-76
2023/06/23 01:13:15;;;;;;;;;;;16.90;99.90;;;;;;8284227;28;19952;-75
2023/06/23 01:17:20;;;;;;;;;;;17.10;99.90;;;;;;8282968;28;19916;-76
2023/06/23 01:21:27;;;;;;;;;;;16.70;99.90;;;;;;8281349;28;19922;-76
2023/06/23 01:25:47;;;;;;;;;;;17.10;99.90;;;;;;8283787;28;19996;-76
2023/06/23 01:29:50;;;;;;;;;;;16.60;99.90;;;;;;8282793;28;19913;-76
2023/06/23 01:33:56;;;;;;;;;;;16.60;99.90;;;;;;8283314;28;19925;-75
2023/06/23 01:38:00;;;;;;;;;;;16.60;99.90;;;;;;8284185;28;20286;-76
2023/06/23 01:42:09;;;;;;;;;;;16.60;99.90;;;;;;8283667;28;19931;-76
2023/06/23 01:46:14;;;;;;;;;;;16.40;99.90;;;;;;8280153;28;20375;-75
2023/06/23 01:50:18;;;;;;;;;;;16.50;99.90;;;;;;8281499;28;19917;-76
2023/06/23 01:54:19;;;;;;;;;;;16.70;99.90;;;;;;8282035;28;20015;-75
2023/06/23 01:58:22;;;;;;;;;;;16.70;99.90;;;;;;8284042;28;19909;-76
2023/06/23 02:02:23;;;;;;;;;;;16.80;99.90;;;;;;8281374;28;20470;-77
2023/06/23 02:06:24;;;;;;;;;;;16.80;99.90;;;;;;8282752;28;19910;-77
2023/06/23 02:10:27;;;;;;;;;;;16.60;99.90;;;;;;8282247;28;20573;-77
2023/06/23 02:14:28;;;;;;;;;;;16.70;99.90;;;;;;8282103;28;20618;-77
2023/06/23 02:18:29;;;;;;;;;;;17.10;99.90;;;;;;8283257;28;19917;-75
2023/06/23 02:22:31;;;;;;;;;;;17.00;99.90;;;;;;8281798;28;20027;-77
2023/06/23 02:26:34;;;;;;;;;;;17.00;99.90;;;;;;8283006;28;19913;-76
2023/06/23 02:30:35;;;;;;;;;;;17.20;99.90;;;;;;8281090;28;19965;-77
2023/06/23 02:34:35;;;;;;;;;;;17.40;99.90;;;;;;8280639;28;19925;-76
2023/06/23 02:38:36;;;;;;;;;;;17.10;99.90;;;;;;8282105;28;19909;-75
2023/06/23 02:42:41;;;;;;;;;;;17.10;99.90;;;;;;8280460;28;19909;-76
2023/06/23 02:46:43;;;;;;;;;;;17.50;99.90;;;;;;8280526;28;19925;-74
2023/06/23 02:50:44;;;;;;;;;;;16.90;99.90;;;;;;8281512;28;19964;-76
2023/06/23 02:54:47;;;;;;;;;;;17.00;99.90;;;;;;8279754;28;20650;-77
2023/06/23 02:58:50;;;;;;;;;;;16.70;99.90;;;;;;8281708;28;19960;-77
2023/06/23 03:02:52;;;;;;;;;;;16.60;99.90;;;;;;8281574;28;20012;-76
2023/06/23 03:06:53;;;;;;;;;;;16.60;99.90;;;;;;8281996;28;19917;-77
2023/06/23 03:10:54;;;;;;;;;;;16.60;99.90;;;;;;8281831;28;19918;-76
2023/06/23 03:14:55;;;;;;;;;;;16.90;99.90;;;;;;8282896;28;19910;-78
2023/06/23 03:19:09;;;;;;;;;;;16.70;99.90;;;;;;8281481;28;19913;-78
2023/06/23 03:23:13;;;;;;;;;;;16.60;99.90;;;;;;8281297;28;19996;-78
2023/06/23 03:27:14;;;;;;;;;;;16.60;99.90;;;;;;8283456;28;19909;-79
2023/06/23 03:31:17;;;;;;;;;;;16.60;99.90;;;;;;8281042;28;19917;-80
2023/06/23 03:35:23;;;;;;;;;;;16.90;99.90;;;;;;8283164;28;19918;-78
2023/06/23 03:39:25;;;;;;;;;;;16.50;99.90;;;;;;8284612;28;20007;-78
2023/06/23 03:43:31;;;;;;;;;;;16.30;99.90;;;;;;8286335;28;19913;-79
2023/06/23 03:47:32;;;;;;;;;;;16.30;99.90;;;;;;8295774;28;20505;-82
2023/06/23 03:51:34;;;;;;;;;;;16.30;99.90;;;;;;8286969;28;20448;-82
2023/06/23 03:55:36;;;;;;;;;;;16.20;99.90;;;;;;8285823;28;19967;-82
2023/06/23 03:59:37;;;;;;;;;;;16.80;99.90;;;;;;8284370;28;19977;-82
2023/06/23 04:03:38;;;;;;;;;;;16.40;99.90;;;;;;8283622;28;19917;-82
2023/06/23 04:07:45;;;;;;;;;;;16.40;99.90;;;;;;8284241;28;20421;-82
2023/06/23 04:11:46;;;;;;;;;;;16.30;99.90;;;;;;8294273;28;19918;-83
2023/06/23 04:15:47;;;;;;;;;;;16.40;99.90;;;;;;8293243;28;20397;-82
2023/06/23 04:19:49;;;;;;;;;;;16.20;99.90;;;;;;8287861;28;20008;-85
2023/06/23 04:23:50;;;;;;;;;;;16.30;99.90;;;;;;8295917;28;19963;-83
2023/06/23 04:27:51;;;;;;;;;;;16.20;99.90;;;;;;8301028;28;20357;-83
2023/06/23 04:31:53;;;;;;;;;;;16.50;99.90;;;;;;8318138;28;20452;-84
2023/06/23 04:35:57;;;;;;;;;;;16.00;99.90;;;;;;8296595;28;20609;-84
2023/06/23 04:39:58;;;;;;;;;;;16.50;99.90;;;;;;8295329;28;19936;-85
2023/06/23 04:43:59;;;;;;;;;;;16.40;99.90;;;;;;8292366;28;19924;-84
2023/06/23 04:48:01;;;;;;;;;;;16.70;99.90;;;;;;8286489;28;19914;-84
2023/06/23 04:52:03;;;;;;;;;;;16.40;99.90;;;;;;8293194;28;19924;-84
2023/06/23 04:56:05;;;;;;;;;;;16.10;99.90;;;;;;8299856;28;20531;-84
2023/06/23 05:00:07;;;;;;;;;;;16.20;99.90;;;;;;8290470;28;19917;-83
2023/06/23 05:04:08;;;;;;;;;;;16.30;99.90;;;;;;8282584;28;20349;-78
2023/06/23 05:08:10;;;;;;;;;;;16.50;99.90;;;;;;8291775;28;19921;-78
2023/06/23 05:12:11;;;;;;;;;;;16.60;99.90;;;;;;8285612;28;20008;-79
2023/06/23 05:16:13;;;;;;;;;;;16.60;99.90;;;;;;8283355;28;20314;-78
2023/06/23 05:20:14;;;;;;;;;;;17.10;99.90;;;;;;8289069;28;19940;-79
2023/06/23 05:24:18;;;;;;;;;;;16.60;99.90;;;;;;8284624;28;19944;-80
2023/06/23 05:28:20;;;;;;;;;;;16.70;99.90;;;;;;8283873;28;19922;-79
2023/06/23 05:32:22;;;;;;;;;;;16.70;99.90;;;;;;8284176;28;20072;-78
2023/06/23 05:36:23;;;;;;;;;;;16.90;99.90;;;;;;8284824;28;19910;-79
2023/06/23 05:40:23;;;;;;;;;;;16.80;99.90;;;;;;8282921;28;19914;-79
2023/06/23 05:44:24;;;;;;;;;;;17.00;99.90;;;;;;8305232;28;19919;-78
2023/06/23 05:48:28;;;;;;;;;;;16.90;99.90;;;;;;8292488;28;19914;-79
2023/06/23 05:52:31;;;;;;;;;;;17.00;99.90;;;;;;8284698;28;19917;-80
2023/06/23 05:56:31;;;;;;;;;;;17.40;99.90;;;;;;8283870;28;19945;-79
2023/06/23 06:00:34;;;;;;;;;;;17.70;99.90;;;;;;8282261;28;20507;-77
2023/06/23 06:04:37;;;;;;;;;;;17.70;99.90;;;;;;8282291;28;19921;-80
2023/06/23 06:08:38;;;;;;;;;;;17.70;99.90;;;;;;8282536;28;20329;-80
2023/06/23 06:12:40;;;;;;;;;;;17.70;99.90;;;;;;8283092;28;20325;-79
2023/06/23 06:16:41;;;;;;;;;;;18.00;99.90;;;;;;8283430;28;19913;-79
2023/06/23 06:20:42;;;;;;;;;;;18.40;99.90;;;;;;8281982;28;19913;-78
2023/06/23 06:24:43;;;;;;;;;;;17.70;99.90;;;;;;8282194;28;19920;-79
2023/06/23 06:28:45;;;;;;;;;;;17.80;99.90;;;;;;8281449;28;20423;-80
2023/06/23 06:32:45;;;;;;;;;;;18.10;99.90;;;;;;8283398;28;20432;-78
2023/06/23 06:36:47;;;;;;;;;;;18.70;99.90;;;;;;8284969;28;19917;-79
2023/06/23 06:40:49;;;;;;;;;;;19.10;99.90;;;;;;8283196;28;20317;-79
2023/06/23 06:44:50;;;;;;;;;;;18.30;99.90;;;;;;8281134;28;19917;-79
2023/06/23 06:48:50;;;;;;;;;;;19.00;99.90;;;;;;8282573;28;19921;-79
2023/06/23 06:52:51;;;;;;;;;;;18.90;99.90;;;;;;8279498;28;19918;-78
2023/06/23 06:56:53;;;;;;;;;;;19.10;99.90;;;;;;8281676;28;20054;-78
2023/06/23 07:00:54;;;;;;;;;;;19.30;99.90;;;;;;8281049;28;19992;-78
2023/06/23 07:04:55;;;;;;;;;;;19.90;99.90;;;;;;8279288;28;20393;-78
2023/06/23 07:08:56;;;;;;;;;;;20.50;99.90;;;;;;8280110;28;19944;-78
2023/06/23 07:12:57;;;;;;;;;;;20.50;99.90;;;;;;8301746;28;20163;-78
2023/06/23 07:16:57;;;;;;;;;;;21.00;99.90;;;;;;8278724;28;20063;-77
2023/06/23 07:20:58;;;;;;;;;;;20.30;99.90;;;;;;8280500;28;19914;-78
2023/06/23 07:24:59;;;;;;;;;;;20.80;99.90;;;;;;8277972;28;20149;-77
2023/06/23 07:28:59;;;;;;;;;;;21.30;99.90;;;;;;8278366;28;19921;-77
2023/06/23 07:33:00;;;;;;;;;;;21.50;99.90;;;;;;8280099;28;19917;-77
2023/06/23 07:37:00;;;;;;;;;;;21.50;99.90;;;;;;8277935;28;19921;-78
2023/06/23 07:41:01;;;;;;;;;;;22.10;99.90;;;;;;8279030;28;19920;-77
2023/06/23 07:45:01;;;;;;;;;;;21.80;99.90;;;;;;8274643;28;19914;-77
2023/06/23 07:49:02;;;;;;;;;;;22.20;99.90;;;;;;8275761;28;20617;-77
2023/06/23 07:53:02;;;;;;;;;;;21.90;99.90;;;;;;8275202;28;20015;-77
2023/06/23 07:57:07;;;;;;;;;;;22.40;99.90;;;;;;8275410;28;20338;-77
2023/06/23 08:01:08;;;;;;;;;;;22.50;99.90;;;;;;8273841;28;19918;-77
2023/06/23 08:05:09;;;;;;;;;;;23.60;99.90;;;;;;8277602;28;20045;-77
2023/06/23 08:09:09;;;;;;;;;;;23.10;99.90;;;;;;8276846;28;20218;-76
2023/06/23 08:13:09;;;;;;;;;;;22.70;99.90;;;;;;8275680;28;19921;-76
2023/06/23 08:17:10;;;;;;;;;;;23.30;99.90;;;;;;8277580;28;19952;-77
2023/06/23 08:21:10;;;;;;;;;;;24.00;99.90;;;;;;8278576;28;19917;-76
2023/06/23 08:25:11;;;;;;;;;;;24.50;99.90;;;;;;8277110;28;20019;-76
2023/06/23 08:29:11;;;;;;;;;;;24.70;99.90;;;;;;8277207;28;19972;-77
2023/06/23 08:33:12;;;;;;;;;;;24.30;99.90;;;;;;8298963;28;19924;-77
2023/06/23 08:37:12;;;;;;;;;;;24.20;99.90;;;;;;8278705;28;20362;-77
2023/06/23 08:41:13;;;;;;;;;;;23.90;99.90;;;;;;8275625;28;20587;-76
2023/06/23 08:45:15;;;;;;;;;;;24.00;99.90;;;;;;8277471;28;19920;-77
2023/06/23 08:49:16;;;;;;;;;;;24.20;99.90;;;;;;8278555;28;19917;-76
2023/06/23 08:53:17;;;;;;;;;;;23.50;99.90;;;;;;8277745;28;20364;-76
2023/06/23 08:57:18;;;;;;;;;;;22.80;99.90;;;;;;8282137;28;19924;-76
2023/06/23 09:01:18;;;;;;;;;;;23.30;99.90;;;;;;8283912;28;19921;-75
2023/06/23 09:05:19;;;;;;;;;;;23.20;99.90;;;;;;8283109;28;19921;-76
2023/06/23 09:09:20;;;;;;;;;;;23.20;99.90;;;;;;8282005;28;20389;-76
2023/06/23 09:13:23;;;;;;;;;;;23.50;99.90;;;;;;8282572;28;19979;-75
2023/06/23 09:17:24;;;;;;;;;;;23.90;99.90;;;;;;8275206;28;20029;-75
2023/06/23 09:21:25;;;;;;;;;;;23.90;99.90;;;;;;8280320;28;19917;-76
2023/06/23 09:25:38;;;;;;;;;;;22.70;99.90;;;;;;8281507;28;20438;-75
2023/06/23 09:29:38;;;;;;;;;;;21.90;99.90;;;;;;8282701;28;19913;-76
2023/06/23 09:33:46;;;;;;;;;;;22.60;99.90;;;;;;8280590;28;19925;-76
2023/06/23 09:37:47;;;;;;;;;;;23.70;99.90;;;;;;8274735;28;19924;-76
2023/06/23 09:41:55;;;;;;;;;;;24.30;99.90;;;;;;8282561;28;19913;-76
2023/06/23 09:45:56;;;;;;;;;;;24.50;99.90;;;;;;8273101;28;19976;-75
2023/06/23 09:49:57;;;;;;;;;;;25.10;99.90;;;;;;8290301;28;20503;-75
2023/06/23 09:53:57;;;;;;;;;;;25.30;99.90;;;;;;8274315;28;19913;-75
2023/06/23 09:57:58;;;;;;;;;;;24.90;99.90;;;;;;8273792;28;20386;-76
2023/06/23 10:01:59;;;;;;;;;;;24.30;99.90;;;;;;8277506;28;19914;-76
2023/06/23 10:05:59;;;;;;;;;;;24.10;99.90;;;;;;8280534;28;20555;-75
2023/06/23 10:10:04;;;;;;;;;;;24.70;99.90;;;;;;8280924;28;19984;-75
2023/06/23 10:14:10;;;;;;;;;;;24.80;99.90;;;;;;8280010;28;19924;-76
2023/06/23 10:18:11;;;;;;;;;;;25.40;99.90;;;;;;8279866;28;19913;-74
2023/06/23 10:22:14;;;;;;;;;;;24.90;99.90;;;;;;8271392;28;19918;-75
2023/06/23 10:26:15;;;;;;;;;;;24.90;99.90;;;;;;8275847;28;19929;-76
2023/06/23 10:30:17;;;;;;;;;;;25.40;99.90;;;;;;8279444;28;20307;-74
2023/06/23 10:34:18;;;;;;;;;;;25.20;99.90;;;;;;8280459;28;19999;-75
2023/06/23 10:38:21;;;;;;;;;;;25.40;99.90;;;;;;8279635;28;19949;-76
2023/06/23 10:42:23;;;;;;;;;;;24.60;99.90;;;;;;8280761;28;19967;-76
2023/06/23 10:46:24;;;;;;;;;;;24.70;99.90;;;;;;8277909;28;19913;-75
2023/06/23 10:50:29;;;;;;;;;;;25.00;99.90;;;;;;8276662;28;19940;-76
2023/06/23 10:54:30;;;;;;;;;;;25.30;99.90;;;;;;8280044;28;20509;-75
2023/06/23 10:58:46;;;;;;;;;;;25.70;99.90;;;;;;8278501;28;19917;-75
2023/06/23 11:02:52;;;;;;;;;;;25.60;99.90;;;;;;8280632;28;19922;-76
2023/06/23 11:07:03;;;;;;;;;;;25.10;99.90;;;;;;8276875;28;20048;-76
2023/06/23 11:11:07;;;;;;;;;;;24.60;99.90;;;;;;8277519;28;19917;-76
2023/06/23 11:15:12;;;;;;;;;;;23.80;99.90;;;;;;8281342;28;19985;-77
2023/06/23 11:19:25;;;;;;;;;;;24.20;99.90;;;;;;8299153;28;19913;-76
2023/06/23 11:23:26;;;;;;;;;;;24.30;99.90;;;;;;8274325;28;19921;-77
2023/06/23 11:27:26;;;;;;;;;;;25.00;99.90;;;;;;8287033;28;19921;-76
2023/06/23 11:31:28;;;;;;;;;;;24.80;99.90;;;;;;8298021;28;21055;-76
2023/06/23 11:35:29;;;;;;;;;;;25.60;99.90;;;;;;8286315;28;20466;-75
2023/06/23 11:39:29;;;;;;;;;;;26.60;99.90;;;;;;8300704;28;19917;-77
2023/06/23 11:43:34;;;;;;;;;;;26.60;99.90;;;;;;8302118;28;19945;-76
2023/06/23 11:47:36;;;;;;;;;;;27.40;99.90;;;;;;8279388;28;19917;-75
2023/06/23 11:51:37;;;;;;;;;;;26.20;99.90;;;;;;8286667;28;19921;-76
2023/06/23 11:55:37;;;;;;;;;;;25.70;99.90;;;;;;8279045;28;19972;-77
2023/06/23 11:59:41;;;;;;;;;;;26.60;99.90;;;;;;8276443;28;19925;-76
2023/06/23 12:03:45;;;;;;;;;;;27.70;99.90;;;;;;8278013;28;20286;-76
2023/06/23 12:07:47;;;;;;;;;;;27.40;99.90;;;;;;8291118;28;19913;-76
2023/06/23 12:11:47;;;;;;;;;;;26.60;99.90;;;;;;8289338;28;19925;-77
2023/06/23 12:15:48;;;;;;;;;;;26.20;99.90;;;;;;8295546;28;19913;-77
2023/06/23 12:19:48;;;;;;;;;;;25.40;99.90;;;;;;8298751;28;20006;-77
2023/06/23 12:23:48;;;;;;;;;;;26.00;99.90;;;;;;8289307;28;19913;-76
2023/06/23 12:27:50;;;;;;;;;;;27.30;99.90;;;;;;8285402;28;19921;-76
2023/06/23 12:31:55;;;;;;;;;;;27.20;99.90;;;;;;8282460;28;19928;-76
2023/06/23 12:36:03;;;;;;;;;;;28.40;97.00;;;;;;8292476;28;20019;-75
2023/06/23 12:40:05;;;;;;;;;;;28.70;95.80;;;;;;8280808;28;19913;-75
2023/06/23 12:44:06;;;;;;;;;;;28.40;95.20;;;;;;8288895;28;19924;-76
2023/06/23 12:48:08;;;;;;;;;;;27.80;96.00;;;;;;8305342;28;20250;-76
2023/06/23 12:52:10;;;;;;;;;;;26.50;99.90;;;;;;8285531;28;19918;-77
2023/06/23 12:56:11;;;;;;;;;;;29.00;96.90;;;;;;8283204;28;19955;-78
2023/06/23 13:00:13;;;;;;;;;;;28.10;94.60;;;;;;8280972;28;19910;-77
2023/06/23 13:04:13;;;;;;;;;;;28.70;92.40;;;;;;8277425;28;20423;-76
2023/06/23 13:08:14;;;;;;;;;;;30.10;83.60;;;;;;8277151;28;19909;-78
2023/06/23 13:12:15;;;;;;;;;;;29.30;77.70;;;;;;8284787;28;19917;-77
2023/06/23 13:16:16;;;;;;;;;;;27.10;86.80;;;;;;8293261;28;19913;-81
2023/06/23 13:20:16;;;;;;;;;;;25.60;91.40;;;;;;8306846;28;20586;-80
2023/06/23 13:24:17;;;;;;;;;;;26.20;89.00;;;;;;8312613;28;19955;-81
2023/06/23 13:28:18;;;;;;;;;;;28.20;85.30;;;;;;8287696;28;20003;-79
2023/06/23 13:32:18;;;;;;;;;;;30.80;86.90;;;;;;8289397;28;19918;-80
2023/06/23 13:36:19;;;;;;;;;;;29.70;77.30;;;;;;8283941;28;19917;-79
2023/06/23 13:40:19;;;;;;;;;;;26.30;84.20;;;;;;8281934;28;19925;-79
2023/06/23 13:44:21;;;;;;;;;;;25.50;90.50;;;;;;8280267;28;19928;-79
2023/06/23 13:48:22;;;;;;;;;;;25.70;88.70;;;;;;8287999;28;20514;-78
2023/06/23 13:52:22;;;;;;;;;;;24.70;91.50;;;;;;8290325;28;19929;-80
2023/06/23 13:56:22;;;;;;;;;;;23.80;93.50;;;;;;8312554;28;19909;-81
2023/06/23 14:00:25;;;;;;;;;;;23.80;94.00;;;;;;8287059;28;19917;-81
2023/06/23 14:04:28;;;;;;;;;;;23.80;94.80;;;;;;8284863;28;20236;-81
2023/06/23 14:08:30;;;;;;;;;;;23.60;94.10;;;;;;8303167;28;19913;-80
2023/06/23 14:12:30;;;;;;;;;;;24.00;92.60;;;;;;8297669;28;19928;-82
2023/06/23 14:16:31;;;;;;;;;;;24.10;96.60;;;;;;8289804;28;19913;-79
2023/06/23 14:20:31;;;;;;;;;;;24.60;93.70;;;;;;8288744;28;19921;-79
2023/06/23 14:24:34;;;;;;;;;;;24.90;91.60;;;;;;8308940;28;19937;-80
2023/06/23 14:28:34;;;;;;;;;;;27.00;92.50;;;;;;8287160;28;19996;-79
2023/06/23 14:32:35;;;;;;;;;;;29.40;90.00;;;;;;8295995;28;19917;-77
2023/06/23 14:36:36;;;;;;;;;;;29.40;83.50;;;;;;8294663;28;20659;-78
2023/06/23 14:40:36;;;;;;;;;;;29.30;84.40;;;;;;8287824;28;19932;-77
2023/06/23 14:44:37;;;;;;;;;;;28.70;82.80;;;;;;8285320;28;20103;-77
2023/06/23 14:48:37;;;;;;;;;;;28.20;82.00;;;;;;8299892;28;19975;-78
2023/06/23 14:52:38;;;;;;;;;;;28.50;81.90;;;;;;8302861;28;19917;-76
2023/06/23 14:56:40;;;;;;;;;;;27.70;84.80;;;;;;8295963;28;19917;-77
2023/06/23 15:00:41;;;;;;;;;;;26.40;90.90;;;;;;8298361;28;19910;-77
2023/06/23 15:04:41;;;;;;;;;;;27.80;86.10;;;;;;8290040;28;20008;-78
2023/06/23 15:08:42;;;;;;;;;;;29.90;82.30;;;;;;8285713;28;19929;-75
2023/06/23 15:12:42;;;;;;;;;;;29.70;74.50;;;;;;8305222;28;19917;-79
2023/06/23 15:16:43;;;;;;;;;;;29.30;85.30;;;;;;8291587;28;19949;-77
2023/06/23 15:20:43;;;;;;;;;;;30.30;90.50;;;;;;8301216;28;20503;-77
2023/06/23 15:24:43;;;;;;;;;;;28.00;90.60;;;;;;8303266;28;19917;-78
2023/06/23 15:28:44;;;;;;;;;;;25.90;92.40;;;;;;8299150;28;19913;-78
2023/06/23 15:32:44;;;;;;;;;;;25.00;93.30;;;;;;8293618;28;19917;-78
2023/06/23 15:36:45;;;;;;;;;;;25.30;89.70;;;;;;8302786;28;19921;-78
2023/06/23 15:40:45;;;;;;;;;;;25.60;93.60;;;;;;8299697;28;19920;-78
2023/06/23 15:44:46;;;;;;;;;;;25.20;94.90;;;;;;8288659;28;19914;-77
2023/06/23 15:48:46;;;;;;;;;;;24.40;94.00;;;;;;8289886;28;19977;-77
2023/06/23 15:52:47;;;;;;;;;;;24.00;95.50;;;;;;8296750;28;20642;-77
2023/06/23 15:56:48;;;;;;;;;;;23.80;95.30;;;;;;8306423;28;20505;-76
2023/06/23 16:00:48;;;;;;;;;;;23.40;94.70;;;;;;8283122;28;19920;-77
2023/06/23 16:04:49;;;;;;;;;;;23.20;98.40;;;;;;8294251;28;20700;-76
2023/06/23 16:08:50;;;;;;;;;;;23.10;95.40;;;;;;8293327;28;19956;-77
2023/06/23 16:12:50;;;;;;;;;;;23.00;98.70;;;;;;8298504;28;19922;-77
2023/06/23 16:16:51;;;;;;;;;;;23.10;99.90;;;;;;8285803;28;19909;-77
2023/06/23 16:20:51;;;;;;;;;;;22.90;98.30;;;;;;8293489;28;19921;-78
2023/06/23 16:24:52;;;;;;;;;;;22.80;98.70;;;;;;8307164;28;20302;-77
2023/06/23 16:28:52;;;;;;;;;;;22.60;98.80;;;;;;8295958;28;19949;-77
2023/06/23 16:32:52;;;;;;;;;;;22.80;99.60;;;;;;8286854;28;20325;-77
2023/06/23 16:36:53;;;;;;;;;;;22.60;99.90;;;;;;8288928;28;20476;-78
2023/06/23 16:40:53;;;;;;;;;;;22.60;99.90;;;;;;8293088;28;19917;-78
2023/06/23 16:44:54;;;;;;;;;;;22.50;99.90;;;;;;8291753;28;19928;-77
2023/06/23 16:48:55;;;;;;;;;;;22.60;99.90;;;;;;8298782;28;19944;-79
2023/06/23 16:52:55;;;;;;;;;;;22.90;99.90;;;;;;8301335;28;19921;-77
2023/06/23 16:56:56;;;;;;;;;;;23.60;99.90;;;;;;8296135;28;19913;-77
2023/06/23 17:00:56;;;;;;;;;;;23.20;99.90;;;;;;8300668;28;19910;-80
2023/06/23 17:04:57;;;;;;;;;;;22.80;99.90;;;;;;8286419;28;19914;-78
2023/06/23 17:08:58;;;;;;;;;;;22.90;99.90;;;;;;8284085;28;19941;-77
2023/06/23 17:12:59;;;;;;;;;;;22.70;99.90;;;;;;8284026;28;19921;-79
2023/06/23 17:16:59;;;;;;;;;;;22.50;99.90;;;;;;8289514;28;20315;-78
2023/06/23 17:21:00;;;;;;;;;;;22.40;99.90;;;;;;8286708;28;19952;-78
2023/06/23 17:25:00;;;;;;;;;;;22.90;99.90;;;;;;8280358;28;20527;-78
2023/06/23 17:29:01;;;;;;;;;;;22.60;99.90;;;;;;8292478;28;19980;-77
2023/06/23 17:33:01;;;;;;;;;;;22.80;99.90;;;;;;8287248;28;20028;-77
2023/06/23 17:37:23;;;;;;;;;;;22.60;99.90;;;;;;8288865;28;19925;-77
2023/06/23 17:41:24;;;;;;;;;;;22.40;99.90;;;;;;8288582;28;19921;-76
2023/06/23 17:45:44;;;;;;;;;;;22.10;99.90;;;;;;8289183;28;19984;-77
2023/06/23 17:49:45;;;;;;;;;;;22.10;99.90;;;;;;8292624;28;19925;-77
2023/06/23 17:53:47;;;;;;;;;;;21.50;99.90;;;;;;8290837;28;19971;-77
2023/06/23 17:57:47;;;;;;;;;;;22.00;99.90;;;;;;8285184;28;19945;-77
2023/06/23 18:01:48;;;;;;;;;;;21.20;99.90;;;;;;8302269;28;19921;-76
2023/06/23 18:05:49;;;;;;;;;;;20.80;99.90;;;;;;8301646;28;19913;-77
2023/06/23 18:09:49;;;;;;;;;;;21.40;99.90;;;;;;8285671;28;19917;-77
2023/06/23 18:13:50;;;;;;;;;;;21.30;99.90;;;;;;8271914;28;20533;-76
2023/06/23 18:17:50;;;;;;;;;;;20.30;99.90;;;;;;8274325;28;19917;-76
2023/06/23 18:21:51;;;;;;;;;;;20.20;99.90;;;;;;8272079;28;19951;-76
2023/06/23 18:25:52;;;;;;;;;;;19.90;99.90;;;;;;8277441;28;19916;-78
2023/06/23 18:29:52;;;;;;;;;;;19.60;99.90;;;;;;8277771;28;20462;-76
2023/06/23 18:33:53;;;;;;;;;;;20.00;99.90;;;;;;8278547;28;19921;-75
2023/06/23 18:37:53;;;;;;;;;;;19.50;99.90;;;;;;8278665;28;20676;-77
2023/06/23 18:41:53;;;;;;;;;;;19.50;99.90;;;;;;8279290;28;19968;-75
2023/06/23 18:45:54;;;;;;;;;;;19.40;99.90;;;;;;8277551;28;19960;-77
2023/06/23 18:49:54;;;;;;;;;;;19.30;99.90;;;;;;8278177;28;19918;-77
2023/06/23 18:53:55;;;;;;;;;;;19.20;99.90;;;;;;8278976;28;19922;-77
2023/06/23 18:57:55;;;;;;;;;;;19.30;99.90;;;;;;8278355;28;19913;-77
2023/06/23 19:01:56;;;;;;;;;;;18.90;99.90;;;;;;8279777;28;19928;-76
2023/06/23 19:05:56;;;;;;;;;;;19.00;99.90;;;;;;8299526;28;19913;-76
2023/06/23 19:09:57;;;;;;;;;;;18.80;99.90;;;;;;8277436;28;19918;-76
2023/06/23 19:13:57;;;;;;;;;;;18.90;99.90;;;;;;8275912;28;19921;-77
2023/06/23 19:17:57;;;;;;;;;;;18.80;99.90;;;;;;8275333;28;19980;-77
2023/06/23 19:21:58;;;;;;;;;;;18.70;99.90;;;;;;8276458;28;19917;-76
2023/06/23 19:25:59;;;;;;;;;;;18.90;99.90;;;;;;8276517;28;19932;-77
2023/06/23 19:29:59;;;;;;;;;;;18.60;99.90;;;;;;8276318;28;19921;-77
2023/06/23 19:34:00;;;;;;;;;;;18.70;99.90;;;;;;8275181;28;19968;-77
2023/06/23 19:38:00;;;;;;;;;;;18.50;99.90;;;;;;8276735;28;19921;-77
2023/06/23 19:42:01;;;;;;;;;;;18.60;99.90;;;;;;8277191;28;19916;-76
2023/06/23 19:46:02;;;;;;;;;;;18.30;99.90;;;;;;8276710;28;19913;-77
2023/06/23 19:50:02;;;;;;;;;;;18.80;99.90;;;;;;8272049;28;19996;-77
2023/06/23 19:54:06;;;;;;;;;;;18.50;99.90;;;;;;8276361;28;20325;-77
2023/06/23 19:58:06;;;;;;;;;;;18.20;99.90;;;;;;8276710;28;19975;-77
2023/06/23 20:02:07;;;;;;;;;;;18.00;99.90;;;;;;8278336;28;20004;-77
2023/06/23 20:06:07;;;;;;;;;;;18.20;99.90;;;;;;8275781;28;19953;-77
2023/06/23 20:10:08;;;;;;;;;;;17.80;99.90;;;;;;8277034;28;19917;-76
2023/06/23 20:14:09;;;;;;;;;;;17.60;99.90;;;;;;8276702;28;19920;-77
2023/06/23 20:18:09;;;;;;;;;;;17.40;99.90;;;;;;8276869;28;20514;-77
2023/06/23 20:22:09;;;;;;;;;;;17.20;99.90;;;;;;8276257;28;19913;-78
2023/06/23 20:26:10;;;;;;;;;;;16.80;99.90;;;;;;8275528;28;19918;-77
2023/06/23 20:30:11;;;;;;;;;;;16.60;99.90;;;;;;8277733;28;19988;-77
2023/06/23 20:34:11;;;;;;;;;;;16.10;99.90;;;;;;8274023;28;20081;-77
2023/06/23 20:38:12;;;;;;;;;;;15.90;99.90;;;;;;8275516;28;19914;-77
2023/06/23 20:42:12;;;;;;;;;;;16.00;99.90;;;;;;8278543;28;19918;-77
2023/06/23 20:46:13;;;;;;;;;;;15.90;99.90;;;;;;8278938;28;20521;-77
2023/06/23 20:50:13;;;;;;;;;;;15.70;99.90;;;;;;8279461;28;20390;-77
2023/06/23 20:54:14;;;;;;;;;;;15.40;99.90;;;;;;8286080;28;19999;-77
2023/06/23 20:58:14;;;;;;;;;;;15.10;99.90;;;;;;8282106;28;20579;-77
2023/06/23 21:02:15;;;;;;;;;;;15.00;99.90;;;;;;8290725;28;19917;-81
2023/06/23 21:06:15;;;;;;;;;;;15.00;99.90;;;;;;8293504;28;19918;-82
2023/06/23 21:10:16;;;;;;;;;;;14.90;99.90;;;;;;8301531;28;20534;-81
2023/06/23 21:14:16;;;;;;;;;;;15.00;99.90;;;;;;8311929;28;19913;-80
2023/06/23 21:18:17;;;;;;;;;;;15.00;99.90;;;;;;8298283;28;20349;-81
2023/06/23 21:22:17;;;;;;;;;;;14.60;99.90;;;;;;8293459;28;20362;-80
2023/06/23 21:26:18;;;;;;;;;;;14.20;99.90;;;;;;8293662;28;19979;-80
2023/06/23 21:30:18;;;;;;;;;;;14.10;99.90;;;;;;8295751;28;20522;-81
2023/06/23 21:34:19;;;;;;;;;;;15.10;99.90;;;;;;8296718;28;20013;-80
2023/06/23 21:38:19;;;;;;;;;;;13.70;99.90;;;;;;8294321;28;19916;-80
2023/06/23 21:42:20;;;;;;;;;;;13.70;99.90;;;;;;8292195;28;19928;-82
2023/06/23 21:46:20;;;;;;;;;;;13.50;99.90;;;;;;8294929;28;20378;-80
2023/06/23 21:50:21;;;;;;;;;;;13.20;99.90;;;;;;8296138;28;19960;-81
2023/06/23 21:54:21;;;;;;;;;;;13.20;99.90;;;;;;8294725;28;19921;-82
2023/06/23 21:58:21;;;;;;;;;;;13.40;99.90;;;;;;8295891;28;19940;-81
2023/06/23 22:02:22;;;;;;;;;;;13.30;99.90;;;;;;8293337;28;19910;-80
2023/06/23 22:06:22;;;;;;;;;;;12.90;99.90;;;;;;8294875;28;19968;-82
2023/06/23 22:10:23;;;;;;;;;;;12.60;99.90;;;;;;8295580;28;20397;-81
2023/06/23 22:14:25;;;;;;;;;;;13.30;99.90;;;;;;8294326;28;20385;-81
2023/06/23 22:18:25;;;;;;;;;;;13.00;99.90;;;;;;8295220;28;19909;-80
2023/06/23 22:22:26;;;;;;;;;;;12.90;99.90;;;;;;8293885;28;20450;-81
2023/06/23 22:26:26;;;;;;;;;;;13.00;99.90;;;;;;8295736;28;19913;-82
2023/06/23 22:30:27;;;;;;;;;;;13.40;99.90;;;;;;8296580;28;19920;-81
2023/06/23 22:34:28;;;;;;;;;;;13.90;99.90;;;;;;8294303;28;20005;-82
2023/06/23 22:38:30;;;;;;;;;;;14.40;99.90;;;;;;8292915;28;21197;-83
2023/06/23 22:42:31;;;;;;;;;;;13.90;99.90;;;;;;8294175;28;20414;-81
2023/06/23 22:46:31;;;;;;;;;;;13.20;99.90;;;;;;8295361;28;20607;-82
2023/06/23 22:50:31;;;;;;;;;;;13.70;99.90;;;;;;8295599;28;19913;-82
2023/06/23 22:54:32;;;;;;;;;;;13.20;99.90;;;;;;8294128;28;19956;-82
2023/06/23 22:58:32;;;;;;;;;;;13.20;99.90;;;;;;8295422;28;20008;-83
2023/06/23 23:02:33;;;;;;;;;;;13.30;99.90;;;;;;8294608;28;19909;-82
2023/06/23 23:06:33;;;;;;;;;;;13.30;99.90;;;;;;8294897;28;19909;-82
2023/06/23 23:10:34;;;;;;;;;;;13.50;99.90;;;;;;8294480;28;20007;-81
2023/06/23 23:14:34;;;;;;;;;;;14.00;99.90;;;;;;8293194;28;19916;-82
2023/06/23 23:18:35;;;;;;;;;;;13.90;99.90;;;;;;8294007;28;19948;-81
2023/06/23 23:22:36;;;;;;;;;;;13.80;99.90;;;;;;8292980;28;19913;-81